Time;durP1;ratioP1;P1;durP2;ratioP2;P2;SDS_P1;SDS_P2;PMS_P1;PMS_P2;Temp;Humidity;BMP_temperature;BMP_pressure;BME280_temperature;BME280_humidity;BME280_pressure;Samples;Min_cycle;Max_cycle;Signal;HPM_P1;HPM_P2
2022/01/13 04:31:14;;;;;;;35.80;24.13;;;;;;;4.12;53.58;101068.22;7747131;23;20236;-84
2022/01/13 04:34:36;;;;;;;37.30;23.73;;;;;;;3.57;52.99;100965.53;6809083;29;20218;-84
2022/01/13 04:37:57;;;;;;;35.50;24.43;;;;;;;3.42;54.21;101002.13;6793640;29;20231;-84
2022/01/13 04:41:28;;;;;;;36.50;24.13;;;;;;;3.43;54.02;101005.66;6793459;29;20223;-84
2022/01/13 04:44:50;;;;;;;35.43;24.63;;;;;;;4.25;53.82;101086.91;6833294;23;20244;-86
2022/01/13 04:48:13;;;;;;;33.67;22.90;;;;;;;3.83;53.96;101082.78;6791363;29;20238;-85
2022/01/13 04:51:36;;;;;;;32.83;23.30;;;;;;;3.59;55.18;101089.81;6793091;29;20208;-82
2022/01/13 04:54:57;;;;;;;34.13;22.80;;;;;;;4.30;53.93;101098.94;6798664;29;20223;-84
2022/01/13 04:58:21;;;;;;;31.90;20.73;;;;;;;4.70;52.42;101096.91;6792690;29;20290;-84
2022/01/13 05:01:43;;;;;;;33.80;21.70;;;;;;;4.70;52.09;101086.22;6791811;29;20599;-83
2022/01/13 05:05:07;;;;;;;32.43;21.53;;;;;;;4.82;52.13;101088.84;6791374;29;20230;-84
2022/01/13 05:08:28;;;;;;;32.83;22.20;;;;;;;4.88;51.67;101079.50;6791643;29;20667;-84
2022/01/13 05:11:50;;;;;;;31.03;22.07;;;;;;;4.96;51.62;101087.84;6791765;29;20202;-84
2022/01/13 05:15:16;;;;;;;37.37;22.53;;;;;;;4.26;53.11;101089.44;6791290;29;20229;-86
2022/01/13 05:18:47;;;;;;;33.93;22.37;;;;;;;4.84;51.89;101097.59;6792031;29;20218;-83
2022/01/13 05:22:16;;;;;;;36.83;23.40;;;;;;;3.87;54.34;101092.28;6791738;29;20198;-84
2022/01/13 05:25:41;;;;;;;34.67;21.93;;;;;;;4.75;52.98;101103.63;6790914;29;20237;-82
2022/01/13 05:29:03;;;;;;;31.10;21.83;;;;;;;4.73;52.33;101083.34;6794459;29;20216;-84
2022/01/13 05:32:26;;;;;;;32.50;21.53;;;;;;;5.00;51.48;101105.31;6794574;29;20229;-84
2022/01/13 05:35:47;;;;;;;28.63;21.70;;;;;;;4.86;51.90;101092.16;6791999;29;20228;-84
2022/01/13 05:39:11;;;;;;;31.70;20.47;;;;;;;5.05;51.93;101101.34;6792296;29;20240;-85
2022/01/13 05:42:32;;;;;;;43.23;26.47;;;;;;;4.41;53.09;101114.19;6791843;29;20223;-84
2022/01/13 05:45:54;;;;;;;36.67;23.43;;;;;;;4.86;51.94;101114.41;6791151;29;20474;-84
2022/01/13 05:49:16;;;;;;;32.27;21.50;;;;;;;4.65;51.29;101105.25;6792137;29;20211;-83
2022/01/13 05:52:38;;;;;;;34.43;21.30;;;;;;;4.84;51.60;101121.66;6790945;29;20216;-84
2022/01/13 05:56:01;;;;;;;28.50;20.60;;;;;;;4.94;50.98;101108.47;6790697;29;20214;-84
2022/01/13 05:59:23;;;;;;;28.23;19.80;;;;;;;4.96;51.07;101088.66;6790496;29;20235;-82
2022/01/13 06:02:46;;;;;;;32.13;21.97;;;;;;;5.04;50.70;101114.84;6790184;29;20216;-82
2022/01/13 06:06:07;;;;;;;32.87;22.20;;;;;;;5.19;50.92;101111.88;6789360;29;20198;-83
2022/01/13 06:09:29;;;;;;;31.53;22.13;;;;;;;4.92;51.54;101129.97;6789461;29;20576;-83
2022/01/13 06:12:53;;;;;;;31.13;21.90;;;;;;;4.56;52.40;101111.28;6789904;29;20236;-83
2022/01/13 06:16:14;;;;;;;34.43;22.43;;;;;;;4.54;51.77;101115.03;6788997;29;20223;-84
2022/01/13 06:19:36;;;;;;;30.83;21.43;;;;;;;5.01;51.45;101126.59;6789398;29;20237;-82
2022/01/13 06:23:00;;;;;;;31.97;21.70;;;;;;;4.91;51.37;101101.53;6792447;29;20228;-83
2022/01/13 06:26:24;;;;;;;29.37;20.13;;;;;;;5.10;51.08;101112.56;6810727;29;20222;-83
2022/01/13 06:29:47;;;;;;;31.30;21.90;;;;;;;4.98;51.10;101085.88;6814550;29;20206;-83
2022/01/13 06:33:09;;;;;;;32.90;21.47;;;;;;;5.14;51.26;101103.31;6813719;29;20223;-83
2022/01/13 06:36:31;;;;;;;35.70;23.20;;;;;;;4.74;51.98;101106.41;6814292;29;20345;-83
2022/01/13 06:39:53;;;;;;;29.80;20.87;;;;;;;4.54;51.94;101097.16;6815107;29;20365;-83
2022/01/13 06:43:14;;;;;;;30.67;20.90;;;;;;;4.20;53.77;101119.25;6814341;29;20241;-84
2022/01/13 06:46:37;;;;;;;33.07;22.27;;;;;;;4.78;51.90;101098.03;6812974;29;20576;-83
2022/01/13 06:49:59;;;;;;;29.80;20.27;;;;;;;4.86;51.22;101108.19;6816242;29;20229;-83
2022/01/13 06:53:21;;;;;;;30.97;21.67;;;;;;;4.91;51.50;101111.38;6818512;29;20226;-84
2022/01/13 06:56:43;;;;;;;30.63;19.40;;;;;;;4.97;51.02;101087.72;6816823;29;20214;-83
2022/01/13 07:00:06;;;;;;;27.47;19.87;;;;;;;4.97;50.91;101111.78;6817098;29;20230;-84
2022/01/13 07:03:29;;;;;;;30.63;20.50;;;;;;;4.48;52.35;101129.66;6817281;29;20226;-84
2022/01/13 07:06:51;;;;;;;27.80;19.87;;;;;;;4.57;52.33;101139.72;6818682;29;20217;-83
2022/01/13 07:10:13;;;;;;;29.17;19.23;;;;;;;4.44;52.81;101140.69;6818506;29;20244;-84
2022/01/13 07:13:35;;;;;;;31.00;20.43;;;;;;;4.64;51.93;101157.00;6817218;29;20230;-84
2022/01/13 07:16:57;;;;;;;29.03;19.87;;;;;;;4.04;54.16;101174.69;6818176;29;20570;-83
2022/01/13 07:20:28;;;;;;;27.83;20.77;;;;;;;4.13;53.13;101174.03;6817103;29;20234;-83
2022/01/13 07:23:49;;;;;;;29.47;19.97;;;;;;;4.83;51.75;101129.81;6815547;29;20379;-81
2022/01/13 07:27:11;;;;;;;26.63;19.23;;;;;;;4.98;51.39;101169.63;6817168;29;20212;-82
2022/01/13 07:30:33;;;;;;;26.90;19.17;;;;;;;5.20;50.86;101166.22;6815464;29;20213;-82
2022/01/13 07:33:55;;;;;;;26.20;18.90;;;;;;;5.10;50.98;101159.84;6816261;29;20218;-83
2022/01/13 07:37:18;;;;;;;27.10;18.20;;;;;;;5.28;51.04;101182.53;6816697;29;20586;-82
2022/01/13 07:40:40;;;;;;;28.67;18.73;;;;;;;5.37;51.11;101179.19;6816768;29;20233;-83
2022/01/13 07:44:01;;;;;;;26.10;18.60;;;;;;;5.38;50.59;101159.50;6817139;29;20246;-82
2022/01/13 07:47:23;;;;;;;29.97;20.17;;;;;;;5.21;50.82;101176.81;6808372;29;20590;-83
2022/01/13 07:50:45;;;;;;;26.30;18.03;;;;;;;5.38;50.60;101178.22;6793368;29;20214;-84
2022/01/13 07:54:08;;;;;;;26.63;18.33;;;;;;;5.39;50.15;101174.56;6818328;29;20235;-83
2022/01/13 07:57:30;;;;;;;29.97;20.07;;;;;;;5.28;50.78;101180.72;6821600;29;20203;-83
2022/01/13 08:00:51;;;;;;;24.90;18.17;;;;;;;4.98;51.57;101161.59;6824741;29;20222;-84
2022/01/13 08:04:13;;;;;;;24.20;18.33;;;;;;;4.87;51.92;101174.91;6814752;29;20225;-83
2022/01/13 08:07:34;;;;;;;23.33;17.67;;;;;;;4.83;52.01;101170.72;6797912;29;20224;-83
2022/01/13 08:10:57;;;;;;;26.00;18.20;;;;;;;4.88;52.10;101187.28;6822616;29;20207;-82
2022/01/13 08:14:19;;;;;;;26.03;17.80;;;;;;;5.06;52.06;101180.59;6814340;29;20723;-83
2022/01/13 08:21:20;;;;;;;28.13;17.63;;;;;;;4.95;52.57;101195.72;6822625;29;20184;-82
2022/01/13 08:24:42;;;;;;;27.67;18.20;;;;;;;5.19;51.54;101201.97;6821654;29;20238;-83
2022/01/13 08:28:05;;;;;;;27.60;17.73;;;;;;;5.08;51.85;101183.16;6821496;29;20213;-82
2022/01/13 08:31:27;;;;;;;26.93;18.47;;;;;;;4.76;52.38;101190.84;6822891;29;20579;-81
2022/01/13 08:34:49;;;;;;;25.03;19.33;;;;;;;4.81;52.88;101188.72;6822237;29;20226;-82
2022/01/13 08:38:16;;;;;;;26.27;18.33;;;;;;;5.29;52.01;101185.09;6824095;29;20367;-83
2022/01/13 08:41:37;;;;;;;26.53;18.90;;;;;;;5.16;51.21;101176.28;6817319;29;20217;-82
2022/01/13 08:45:00;;;;;;;28.33;20.20;;;;;;;5.51;51.22;101176.31;6824870;29;20596;-81
2022/01/13 08:48:23;;;;;;;30.20;18.90;;;;;;;5.36;51.01;101169.47;6827255;29;20203;-80
2022/01/13 08:51:44;;;;;;;26.27;18.90;;;;;;;5.48;50.88;101188.09;6818964;29;20211;-81
2022/01/13 08:55:07;;;;;;;29.03;19.87;;;;;;;5.93;50.14;101179.31;6817801;29;20226;-81
2022/01/13 08:58:29;;;;;;;26.30;19.27;;;;;;;5.58;51.14;101150.78;6825450;29;20226;-81
2022/01/13 09:01:53;;;;;;;26.70;20.27;;;;;;;5.21;51.21;101168.78;6823264;29;20210;-81
2022/01/13 09:05:17;;;;;;;25.93;17.40;;;;;;;5.34;51.99;101176.72;6819922;29;20219;-81
2022/01/13 09:08:39;;;;;;;30.17;19.67;;;;;;;5.07;52.54;101178.78;6818682;29;20203;-81
2022/01/13 09:12:01;;;;;;;28.00;17.87;;;;;;;5.56;51.92;101158.97;6825225;29;20202;-81
2022/01/13 09:15:32;;;;;;;20.43;15.37;;;;;;;6.71;50.05;101148.88;6822661;29;20283;-82
2022/01/13 09:19:08;;;;;;;21.57;15.90;;;;;;;6.85;49.15;101156.66;6827082;29;20237;-82
2022/01/13 09:22:30;;;;;;;23.63;15.70;;;;;;;7.12;49.21;101146.38;6844966;29;20210;-83
2022/01/13 09:25:52;;;;;;;16.97;14.47;;;;;;;6.85;49.38;101131.69;6829242;29;20212;-82
2022/01/13 09:29:14;;;;;;;20.70;14.60;;;;;;;6.92;48.45;101106.94;6828733;29;20238;-82
2022/01/13 09:32:38;;;;;;;16.83;12.73;;;;;;;7.03;49.16;101146.28;6824567;29;20209;-82
2022/01/13 09:36:03;;;;;;;18.87;13.57;;;;;;;7.30;48.43;101155.56;6826987;29;20192;-81
2022/01/13 09:39:25;;;;;;;16.70;12.30;;;;;;;6.76;49.43;101145.81;6820659;29;20234;-82
2022/01/13 09:42:47;;;;;;;18.67;12.90;;;;;;;7.11;49.61;101141.13;6821903;29;20580;-82
2022/01/13 09:46:09;;;;;;;15.90;12.77;;;;;;;7.09;49.02;101148.44;6804179;29;20211;-82
2022/01/13 09:49:30;;;;;;;17.33;13.67;;;;;;;7.32;48.63;101126.75;6797942;29;20688;-81
2022/01/13 09:52:53;;;;;;;16.50;12.80;;;;;;;7.57;48.29;101139.00;6792577;29;20234;-81
2022/01/13 09:56:15;;;;;;;18.73;12.90;;;;;;;7.61;47.31;101084.91;6790603;29;20207;-81
2022/01/13 09:59:37;;;;;;;16.83;12.80;;;;;;;7.87;47.13;101120.25;6791066;29;20229;-81
2022/01/13 10:02:59;;;;;;;15.20;12.03;;;;;;;8.07;46.85;101149.78;6790881;29;20244;-81
2022/01/13 10:06:22;;;;;;;17.97;12.60;;;;;;;8.07;46.99;101140.91;6790113;29;20259;-82
2022/01/13 10:09:54;;;;;;;16.87;12.23;;;;;;;8.43;45.93;101146.63;6790629;29;20206;-82
2022/01/13 10:13:24;;;;;;;16.47;13.20;;;;;;;8.33;45.70;101105.44;6790370;29;20744;-81
2022/01/13 10:16:49;;;;;;;16.30;12.60;;;;;;;8.88;44.83;101122.84;6812154;29;20202;-82
2022/01/13 10:20:11;;;;;;;17.60;12.87;;;;;;;8.85;44.79;101107.84;6816475;29;20227;-81
2022/01/13 10:23:33;;;;;;;18.33;12.93;;;;;;;7.76;47.37;101126.56;6808139;29;20240;-82
2022/01/13 10:27:08;;;;;;;15.70;12.47;;;;;;;8.74;45.88;101097.22;6816202;29;20711;-82
2022/01/13 10:30:39;;;;;;;16.33;12.30;;;;;;;9.08;44.46;101122.75;6816495;29;20188;-84
2022/01/13 10:34:16;;;;;;;14.53;12.27;;;;;;;9.32;44.00;101132.13;6790428;29;20303;-83
2022/01/13 10:37:39;;;;;;;14.53;11.10;;;;;;;9.43;45.73;101125.75;6791701;29;20212;-85
2022/01/13 10:41:28;;;;;;;17.10;12.73;;;;;;;8.69;45.05;101129.06;6788620;29;20234;-82
2022/01/13 10:44:56;;;;;;;13.60;11.23;;;;;;;8.08;47.71;100958.03;6771486;23;1189685;-79
2022/01/13 10:48:21;;;;;;;16.30;11.63;;;;;;;9.21;44.70;101128.75;6805735;29;20227;-80
2022/01/13 10:51:44;;;;;;;13.30;10.33;;;;;;;9.02;44.32;101058.72;6804973;29;20292;-79
2022/01/13 10:55:09;;;;;;;16.67;10.10;;;;;;;9.34;45.07;101130.16;6804228;29;20212;-77
2022/01/13 10:58:32;;;;;;;13.03;10.27;;;;;;;7.60;48.66;101114.59;6806678;29;20217;-77
2022/01/13 11:02:08;;;;;;;12.40;10.00;;;;;;;5.81;53.22;101040.19;6798657;29;20217;-76
2022/01/13 11:05:32;;;;;;;14.17;11.40;;;;;;;6.90;51.53;101118.75;6790450;29;20213;-77
2022/01/13 11:08:54;;;;;;;13.63;9.83;;;;;;;6.55;52.15;101116.25;6790229;29;20214;-77
2022/01/13 11:12:15;;;;;;;15.40;10.60;;;;;;;6.68;52.21;101086.63;6792478;29;20197;-87
2022/01/13 11:15:44;;;;;;;14.33;10.43;;;;;;;7.50;50.43;101082.31;6792482;29;20702;-86
2022/01/13 11:19:09;;;;;;;12.87;9.80;;;;;;;8.84;46.23;101030.81;6792679;29;20626;-85
2022/01/13 11:22:37;;;;;;;12.50;9.37;;;;;;;9.47;44.82;100979.94;6795598;29;20218;-89
2022/01/13 11:25:59;;;;;;;12.63;9.33;;;;;;;9.97;44.01;101077.47;6805423;29;20217;-88
2022/01/13 11:29:22;;;;;;;12.80;9.73;;;;;;;7.71;45.92;100883.59;6796530;29;20222;-85
2022/01/13 11:32:46;;;;;;;14.27;10.73;;;;;;;8.01;49.01;101150.31;6780732;29;20239;-84
2022/01/13 11:36:12;;;;;;;17.13;11.63;;;;;;;7.49;51.45;101130.75;6770769;29;20211;-83
2022/01/13 11:39:41;;;;;;;15.30;10.67;;;;;;;7.28;50.96;101085.09;6770039;29;20220;-83
2022/01/13 11:43:05;;;;;;;15.33;10.93;;;;;;;6.46;52.35;100984.84;6770994;29;20210;-84
2022/01/13 11:46:28;;;;;;;14.13;10.47;;;;;;;7.34;51.94;101126.66;6800585;29;20218;-83
2022/01/13 11:49:56;;;;;;;15.83;10.83;;;;;;;6.67;52.45;101024.09;6797788;29;20222;-84
2022/01/13 11:53:28;;;;;;;15.57;10.17;;;;;;;7.16;51.10;101045.88;6795631;29;20676;-76
2022/01/13 11:57:13;;;;;;;13.63;9.67;;;;;;;8.24;49.15;101133.09;6781264;29;20210;-76
2022/01/13 12:00:35;;;;;;;16.50;10.60;;;;;;;8.26;49.68;101096.19;6781820;29;20235;-76
2022/01/13 12:03:58;;;;;;;12.43;9.80;;;;;;;9.71;46.30;101109.59;6780328;29;20212;-76
2022/01/13 12:07:35;;;;;;;13.63;9.97;;;;;;;9.50;44.74;101013.81;6779780;29;20225;-76
2022/01/13 12:10:58;;;;;;;12.03;8.83;;;;;;;9.97;44.22;101002.88;6790912;29;20215;-76
2022/01/13 12:14:42;;;;;;;13.50;9.97;;;;;;;9.39;44.55;100984.34;6793941;29;20219;-76
2022/01/13 12:18:05;;;;;;;14.33;10.37;;;;;;;8.98;47.45;101092.31;6794081;29;20388;-75
2022/01/13 12:21:31;;;;;;;12.50;9.87;;;;;;;8.66;47.94;101091.66;6785754;29;20593;-76
2022/01/13 12:24:55;;;;;;;15.40;10.60;;;;;;;8.77;47.46;101105.00;6787511;29;20210;-76
2022/01/13 12:28:19;;;;;;;12.73;9.87;;;;;;;8.43;48.33;100984.50;6770806;29;20208;-76
2022/01/13 12:31:50;;;;;;;13.90;10.60;;;;;;;9.10;46.51;100978.16;6774212;29;20196;-76
2022/01/13 12:35:13;;;;;;;15.47;10.57;;;;;;;8.37;47.72;100963.53;6777674;29;20222;-76
2022/01/13 12:38:34;;;;;;;12.67;10.00;;;;;;;8.69;48.34;101072.56;6780286;29;20215;-76
2022/01/13 12:42:00;;;;;;;14.33;10.57;;;;;;;8.20;48.56;100962.34;6784283;29;20590;-76
2022/01/13 12:45:32;;;;;;;13.23;9.57;;;;;;;8.85;47.06;100994.84;6777096;29;20219;-75
2022/01/13 12:48:55;;;;;;;13.77;10.30;;;;;;;8.19;47.85;100914.94;6779838;29;20199;-76
2022/01/13 12:52:20;;;;;;;12.90;9.47;;;;;;;9.39;46.91;101047.09;6777578;29;20203;-76
2022/01/13 12:55:44;;;;;;;12.20;8.47;;;;;;;8.93;46.01;100948.41;6776749;29;20223;-76
2022/01/13 12:59:10;;;;;;;14.73;9.17;;;;;;;9.07;46.85;100967.66;6767523;29;20219;-76
2022/01/13 13:02:33;;;;;;;13.33;9.63;;;;;;;8.75;47.31;100967.13;6767217;29;20587;-76
2022/01/13 13:05:56;;;;;;;11.63;8.90;;;;;;;9.28;45.99;100973.75;6766654;29;20593;-76
2022/01/13 13:09:20;;;;;;;10.67;8.23;;;;;;;9.11;47.49;101037.19;6770187;29;20207;-76
2022/01/13 13:12:42;;;;;;;10.87;8.60;;;;;;;9.30;46.96;101057.88;6780612;29;20229;-76
2022/01/13 13:16:06;;;;;;;15.97;9.63;;;;;;;8.35;48.98;101016.56;6778714;29;20294;-76
2022/01/13 13:19:39;;;;;;;11.27;8.30;;;;;;;8.21;48.17;100985.59;6779564;29;20721;-76
2022/01/13 13:23:03;;;;;;;13.03;9.67;;;;;;;8.76;48.40;101043.25;6786649;29;20206;-76
2022/01/13 13:26:25;;;;;;;11.73;8.97;;;;;;;9.87;45.62;101026.31;6792193;29;20217;-77
2022/01/13 13:29:51;;;;;;;13.23;9.50;;;;;;;8.98;47.54;101022.34;6784393;29;20335;-75
2022/01/13 13:33:13;;;;;;;11.50;8.83;;;;;;;9.87;45.89;101029.00;6777009;29;20204;-76
2022/01/13 13:36:38;;;;;;;11.17;8.93;;;;;;;10.22;44.70;100971.72;6778643;29;20210;-76
2022/01/13 13:40:00;;;;;;;12.73;9.07;;;;;;;10.39;44.42;100981.72;6779595;29;20239;-75
2022/01/13 13:43:21;;;;;;;13.37;8.43;;;;;;;11.02;43.45;100995.00;6773011;29;20208;-75
2022/01/13 13:46:43;;;;;;;11.73;8.63;;;;;;;11.58;42.40;101016.25;6791017;29;20214;-75
2022/01/13 13:50:06;;;;;;;10.90;8.97;;;;;;;11.18;42.64;100968.16;6792192;29;20215;-75
2022/01/13 13:53:30;;;;;;;11.53;8.63;;;;;;;11.52;42.21;101008.75;6792300;29;20669;-79
2022/01/13 13:56:53;;;;;;;13.17;9.33;;;;;;;10.97;43.18;100934.38;6792027;29;20214;-79
2022/01/13 14:00:17;;;;;;;12.67;9.57;;;;;;;11.26;43.43;100997.91;6792186;29;20231;-79
2022/01/13 14:03:40;;;;;;;11.40;8.90;;;;;;;11.57;43.12;101004.56;6792143;29;20215;-79
2022/01/13 14:07:03;;;;;;;12.23;8.87;;;;;;;10.91;43.68;100983.59;6792869;29;20238;-79
2022/01/13 14:10:27;;;;;;;10.80;8.37;;;;;;;10.89;42.86;100908.19;6792095;29;20218;-79
2022/01/13 14:13:49;;;;;;;12.47;9.27;;;;;;;10.33;42.72;100847.50;6791660;29;20252;-79
2022/01/13 14:17:11;;;;;;;12.83;9.13;;;;;;;11.38;43.07;100982.31;6792096;29;20207;-79
2022/01/13 14:20:33;;;;;;;13.10;9.23;;;;;;;10.06;43.91;100837.63;6791814;29;20590;-79
2022/01/13 14:23:54;;;;;;;13.07;9.50;;;;;;;10.21;43.67;100810.97;6791763;29;20226;-79
2022/01/13 14:27:17;;;;;;;10.93;8.33;;;;;;;11.28;43.27;100979.69;6791858;29;20570;-74
2022/01/13 14:30:40;;;;;;;11.23;9.07;;;;;;;11.16;43.66;100972.03;6791470;29;20214;-74
2022/01/13 14:34:02;;;;;;;10.73;8.47;;;;;;;11.25;44.34;100980.03;6790215;29;20243;-75
2022/01/13 14:37:26;;;;;;;12.00;8.47;;;;;;;10.93;44.54;100973.50;6791856;29;20218;-74
2022/01/13 14:40:49;;;;;;;15.07;9.13;;;;;;;11.20;43.57;100952.63;6791266;29;20697;-73
2022/01/13 14:44:20;;;;;;;14.23;11.83;;;;;;;11.08;43.50;100932.31;6791172;29;20589;-74
2022/01/13 14:47:42;;;;;;;14.83;9.43;;;;;;;11.11;43.26;100964.38;6791053;29;20689;-71
2022/01/13 14:51:07;;;;;;;12.20;8.60;;;;;;;10.88;44.37;100965.03;6790563;29;20218;-74
2022/01/13 14:54:29;;;;;;;14.33;9.90;;;;;;;10.78;43.97;100954.31;6790989;29;20219;-74
2022/01/13 14:57:54;;;;;;;11.90;8.53;;;;;;;10.74;44.37;100960.16;6790667;29;20218;-74
2022/01/13 15:01:17;;;;;;;11.30;8.57;;;;;;;10.38;43.87;100916.13;6796746;29;20244;-74
2022/01/13 15:04:39;;;;;;;11.30;8.47;;;;;;;10.32;45.22;100951.78;6795982;29;20219;-75
2022/01/13 15:08:01;;;;;;;13.23;8.63;;;;;;;10.22;45.08;100953.69;6793684;29;20227;-79
2022/01/13 15:11:23;;;;;;;11.07;8.53;;;;;;;9.52;45.67;100869.09;6787947;29;20230;-75
2022/01/13 15:14:45;;;;;;;11.97;8.80;;;;;;;9.92;45.91;100924.31;6781915;29;20231;-75
2022/01/13 15:18:09;;;;;;;11.10;8.43;;;;;;;9.92;46.42;100940.50;6772743;29;20218;-76
2022/01/13 15:21:32;;;;;;;12.43;8.77;;;;;;;8.86;46.91;100845.06;6777187;29;20288;-75
2022/01/13 15:24:54;;;;;;;11.53;8.70;;;;;;;9.00;48.60;100934.25;6783799;29;20208;-75
2022/01/13 15:28:15;;;;;;;10.00;7.97;;;;;;;9.41;47.54;100955.44;6782159;29;20211;-75
2022/01/13 15:31:37;;;;;;;13.77;9.87;;;;;;;8.78;47.89;100890.69;6782620;29;20552;-75
2022/01/13 15:35:03;;;;;;;17.27;10.77;;;;;;;9.18;47.93;100940.59;6781686;29;20211;-75
2022/01/13 15:38:25;;;;;;;16.90;10.20;;;;;;;8.37;49.72;100932.13;6780993;29;20267;-75
2022/01/13 15:41:48;;;;;;;11.80;9.03;;;;;;;7.88;50.30;100870.34;6783237;29;20232;-75
2022/01/13 15:45:12;;;;;;;17.47;10.73;;;;;;;7.75;52.02;100960.19;6783689;29;20226;-75
2022/01/13 15:48:33;;;;;;;13.50;9.70;;;;;;;8.10;51.37;100957.91;6788318;29;20231;-74
2022/01/13 15:51:56;;;;;;;13.90;9.43;;;;;;;8.17;51.21;100959.94;6795493;29;20208;-74
2022/01/13 15:55:19;;;;;;;13.77;10.00;;;;;;;7.68;51.94;100932.19;6795097;29;20211;-79
2022/01/13 15:58:41;;;;;;;14.67;10.30;;;;;;;7.30;51.70;100864.94;6795326;29;20210;-75
2022/01/13 16:02:03;;;;;;;14.00;9.93;;;;;;;8.07;51.50;100959.03;6796359;29;20246;-75
2022/01/13 16:05:26;;;;;;;11.90;9.07;;;;;;;7.88;50.98;100907.09;6796077;29;20262;-75
2022/01/13 16:08:51;;;;;;;13.00;9.27;;;;;;;7.24;51.39;100877.03;6796085;29;20215;-77
2022/01/13 16:12:13;;;;;;;10.93;8.53;;;;;;;6.94;51.70;100822.53;6789882;29;20213;-75
2022/01/13 16:15:35;;;;;;;12.30;8.93;;;;;;;6.49;53.54;100872.88;6767697;29;20208;-78
2022/01/13 16:18:56;;;;;;;11.30;9.47;;;;;;;6.34;54.21;100852.75;6769109;29;20210;-77
2022/01/13 16:22:18;;;;;;;16.30;11.60;;;;;;;7.36;53.57;100955.63;6768512;29;20245;-77
2022/01/13 16:25:41;;;;;;;15.47;10.67;;;;;;;7.46;53.25;100940.41;6767076;29;20249;-77
2022/01/13 16:29:04;;;;;;;16.47;11.07;;;;;;;7.06;52.53;100857.19;6773273;29;20209;-76
2022/01/13 16:32:28;;;;;;;12.57;9.43;;;;;;;6.20;54.31;100847.69;6783924;29;20206;-76
2022/01/13 16:35:49;;;;;;;15.33;10.43;;;;;;;6.52;55.97;100957.53;6773924;29;20215;-76
2022/01/13 16:39:11;;;;;;;15.03;10.27;;;;;;;6.86;55.20;100959.09;6767057;29;20225;-76
2022/01/13 16:42:34;;;;;;;16.37;10.27;;;;;;;7.38;54.20;100962.53;6767417;29;20243;-76
2022/01/13 16:45:58;;;;;;;16.07;12.40;;;;;;;7.59;52.80;100952.63;6766294;29;20228;-77
2022/01/13 16:49:20;;;;;;;17.87;10.70;;;;;;;6.35;53.79;100881.22;6776761;29;20669;-76
2022/01/13 16:52:42;;;;;;;13.37;9.87;;;;;;;6.65;54.63;100967.09;6793495;29;20221;-75
2022/01/13 16:56:04;;;;;;;12.53;9.53;;;;;;;6.15;54.78;100871.34;6793561;29;20659;-75
2022/01/13 16:59:27;;;;;;;13.80;9.47;;;;;;;6.97;54.03;100991.22;6768703;29;20224;-74
2022/01/13 17:02:49;;;;;;;20.63;11.83;;;;;;;7.02;54.14;100997.88;6766544;29;20242;-75
2022/01/13 17:06:11;;;;;;;15.13;11.30;;;;;;;7.09;54.20;101001.78;6766641;29;20234;-76
2022/01/13 17:09:32;;;;;;;13.97;10.73;;;;;;;7.06;53.01;100995.78;6766815;29;20223;-76
2022/01/13 17:12:54;;;;;;;17.10;11.97;;;;;;;6.14;55.35;100973.22;6766920;29;20219;-77
2022/01/13 17:16:18;;;;;;;20.87;12.97;;;;;;;5.23;57.31;100971.59;6766629;29;20217;-74
2022/01/13 17:19:40;;;;;;;23.50;13.37;;;;;;;5.63;57.74;100993.41;6765255;29;20221;-75
2022/01/13 17:23:03;;;;;;;27.93;16.90;;;;;;;5.86;56.82;100942.50;6766033;29;20229;-75
2022/01/13 17:26:25;;;;;;;37.87;18.47;;;;;;;6.35;56.11;100976.81;6780564;29;20611;-77
2022/01/13 17:29:51;;;;;;;34.33;19.30;;;;;;;6.65;55.73;100975.16;6779403;29;20576;-79
2022/01/13 17:33:18;;;;;;;22.20;12.40;;;;;;;6.52;55.44;100928.91;6792208;29;20203;-80
2022/01/13 17:36:40;;;;;;;21.73;12.50;;;;;;;5.95;54.62;100893.53;6791873;29;20222;-78
2022/01/13 17:40:02;;;;;;;15.60;11.27;;;;;;;6.47;55.46;100975.81;6792483;29;20217;-75
2022/01/13 17:43:23;;;;;;;18.07;10.93;;;;;;;5.86;56.02;100979.97;6791952;29;20216;-77
2022/01/13 17:46:46;;;;;;;14.47;10.97;;;;;;;5.87;56.43;100976.31;6791811;29;20222;-78
2022/01/13 17:50:10;;;;;;;15.67;11.30;;;;;;;5.73;56.34;100976.50;6792222;29;20222;-76
2022/01/13 17:53:35;;;;;;;17.07;11.10;;;;;;;5.70;55.72;100909.84;6791791;29;20572;-85
2022/01/13 17:56:56;;;;;;;19.73;13.47;;;;;;;5.99;54.58;100926.25;6791924;29;20217;-78
2022/01/13 18:00:19;;;;;;;17.60;12.80;;;;;;;5.89;55.63;100936.03;6792048;29;20221;-81
2022/01/13 18:03:40;;;;;;;15.27;10.63;;;;;;;6.22;55.21;100952.00;6790070;29;20225;-77
2022/01/13 18:07:04;;;;;;;19.07;12.57;;;;;;;6.12;55.46;100976.03;6791877;29;20260;-76
2022/01/13 18:10:26;;;;;;;17.47;11.87;;;;;;;5.77;55.56;100977.97;6792640;29;20653;-76
2022/01/13 18:13:48;;;;;;;16.37;11.97;;;;;;;5.79;55.99;100925.16;6781583;29;20203;-77
2022/01/13 18:17:10;;;;;;;17.27;11.53;;;;;;;5.87;56.36;100965.59;6769035;29;20542;-77
2022/01/13 18:20:34;;;;;;;14.50;11.10;;;;;;;5.90;56.33;100969.84;6775210;29;20258;-76
2022/01/13 18:23:57;;;;;;;17.17;12.13;;;;;;;6.00;55.47;100973.47;6775167;29;20357;-76
2022/01/13 18:27:19;;;;;;;22.57;12.47;;;;;;;6.21;55.70;100985.16;6772783;29;20217;-76
2022/01/13 18:30:41;;;;;;;13.70;9.83;;;;;;;6.42;54.92;100991.44;6773520;29;20212;-76
2022/01/13 18:34:02;;;;;;;19.77;11.43;;;;;;;5.86;55.28;100989.81;6779704;29;20207;-76
2022/01/13 18:37:25;;;;;;;18.23;13.20;;;;;;;5.93;55.06;100999.03;6788809;29;20229;-76
2022/01/13 18:40:49;;;;;;;22.10;15.93;;;;;;;5.22;57.15;101006.47;6774582;29;20243;-76
2022/01/13 18:44:12;;;;;;;18.53;13.00;;;;;;;5.26;55.91;100933.09;6774577;29;20224;-76
2022/01/13 18:47:37;;;;;;;17.37;12.37;;;;;;;4.99;56.89;100992.22;6783680;29;20203;-77
2022/01/13 18:50:59;;;;;;;15.17;11.97;;;;;;;5.01;56.79;100910.06;6788209;29;20216;-78
2022/01/13 18:54:20;;;;;;;16.70;11.07;;;;;;;5.51;56.56;100981.88;6788226;29;20231;-78
2022/01/13 18:57:44;;;;;;;19.27;11.93;;;;;;;5.06;57.07;100998.78;6790672;29;20211;-78
2022/01/13 19:01:07;;;;;;;17.93;11.50;;;;;;;4.50;57.82;100886.50;6788799;29;20287;-78
2022/01/13 19:04:29;;;;;;;19.37;12.77;;;;;;;4.55;58.66;100898.53;6790450;29;20217;-77
2022/01/13 19:07:50;;;;;;;17.07;11.60;;;;;;;5.73;57.14;100983.69;6790468;29;20220;-76
2022/01/13 19:11:12;;;;;;;19.17;12.60;;;;;;;5.43;56.39;100973.56;6781082;29;20215;-77
2022/01/13 19:14:35;;;;;;;16.40;11.53;;;;;;;5.34;56.55;100936.00;6763530;29;20212;-77
2022/01/13 19:17:59;;;;;;;22.50;13.87;;;;;;;5.43;56.10;100928.09;6764740;29;20216;-77
2022/01/13 19:21:21;;;;;;;20.77;13.83;;;;;;;4.96;55.26;100842.75;6764734;29;20241;-78
2022/01/13 19:24:42;;;;;;;18.97;12.63;;;;;;;5.51;55.51;100946.22;6774800;29;20213;-77
2022/01/13 19:28:22;;;;;;;19.77;11.97;;;;;;;5.43;54.81;100906.69;6790565;29;20696;-78
2022/01/13 19:31:45;;;;;;;19.83;12.23;;;;;;;5.73;55.38;100973.81;6709642;29;20213;-79
2022/01/13 19:35:08;;;;;;;22.30;13.03;;;;;;;4.44;55.64;100766.78;6709199;29;20213;-78
2022/01/13 19:38:31;;;;;;;22.77;13.33;;;;;;;5.73;55.40;100973.00;6711199;29;20224;-90
2022/01/13 19:41:55;;;;;;;17.57;12.97;;;;;;;5.59;55.92;100989.25;6709896;29;20243;-87
2022/01/13 19:45:18;;;;;;;20.07;14.77;;;;;;;5.33;56.73;100977.97;6711849;29;20312;-88
2022/01/13 19:48:41;;;;;;;20.53;13.37;;;;;;;4.48;57.07;100846.53;6713775;29;20210;-79
2022/01/13 19:52:04;;;;;;;18.83;12.03;;;;;;;5.59;56.41;100957.16;6713570;29;20239;-78
2022/01/13 19:55:29;;;;;;;15.50;11.33;;;;;;;5.61;56.46;100941.84;6713676;29;20216;-81
2022/01/13 19:58:51;;;;;;;18.77;12.47;;;;;;;5.14;56.58;100916.16;6713992;29;20240;-80
2022/01/13 20:02:13;;;;;;;21.03;14.27;;;;;;;5.04;56.88;100915.19;6713650;29;20321;-79
2022/01/13 20:05:36;;;;;;;22.80;13.03;;;;;;;3.72;57.76;100708.34;6694911;29;20222;-77
2022/01/13 20:08:59;;;;;;;22.50;14.13;;;;;;;5.10;57.60;100887.97;6714781;29;20240;-77
2022/01/13 20:12:22;;;;;;;17.97;13.30;;;;;;;4.93;56.96;100880.41;6776928;29;20307;-77